Time,TemperatureF,DewpointF,PressureIn,WindDirection,WindDirectionDegrees,WindSpeedMPH,WindSpeedGustMPH,Humidity,HourlyPrecipIn,Conditions,Clouds,dailyrainin,SoftwareType,DateUTC
2013-10-03 00:02:00,62.0,-99.9,-100.00,WSW,253,22.0,45.0,-999,-99.99,,,-99.99,,2013-10-03 07:02:00,
2013-10-03 00:12:00,62.0,-99.9,-100.00,WSW,253,22.0,45.0,-999,-99.99,,,-99.99,,2013-10-03 07:12:00,
2013-10-03 00:22:00,62.0,-99.9,-100.00,WSW,253,22.0,45.0,-999,-99.99,,,-99.99,,2013-10-03 07:22:00,
2013-10-03 00:52:00,61.0,-99.9,-100.00,WSW,249,37.0,44.0,-999,-99.99,,,-99.99,,2013-10-03 07:52:00,
2013-10-03 01:03:00,61.0,-99.9,-100.00,WSW,249,37.0,44.0,-999,-99.99,,,-99.99,,2013-10-03 08:03:00,
2013-10-03 01:12:00,61.0,-99.9,-100.00,WSW,249,37.0,44.0,-999,-99.99,,,-99.99,,2013-10-03 08:12:00,
2013-10-03 01:52:00,61.0,-99.9,-100.00,SW,234,46.0,46.0,-999,-99.99,,,-99.99,,2013-10-03 08:52:00,
2013-10-03 02:12:00,60.0,-99.9,-100.00,West,261,24.0,52.0,-999,-99.99,,,-99.99,,2013-10-03 09:12:00,
2013-10-03 02:22:00,60.0,-99.9,-100.00,West,261,24.0,52.0,-999,-99.99,,,-99.99,,2013-10-03 09:22:00,
2013-10-03 02:43:00,59.0,-99.9,-100.00,WSW,241,31.0,50.0,-999,-99.99,,,-99.99,,2013-10-03 09:43:00,
2013-10-03 02:53:00,60.0,-99.9,-100.00,WSW,242,40.0,47.0,-999,-99.99,,,-99.99,,2013-10-03 09:53:00,
2013-10-03 03:13:00,61.0,-99.9,-100.00,WSW,247,26.0,34.0,-999,-99.99,,,-99.99,,2013-10-03 10:13:00,
2013-10-03 06:11:00,61.0,-99.9,-100.00,ESE,120,2.0,23.0,-999,-99.99,,,-99.99,,2013-10-03 13:11:00,
2013-10-03 07:52:00,59.0,-99.9,-100.00,West,275,10.0,21.0,-999,-99.99,,,-99.99,,2013-10-03 14:52:00,
2013-10-03 08:01:00,59.0,-99.9,-100.00,West,275,10.0,21.0,-999,-99.99,,,-99.99,,2013-10-03 15:01:00,
2013-10-03 08:44:00,62.0,-99.9,-100.00,WSW,237,11.0,27.0,-999,-99.99,,,-99.99,,2013-10-03 15:44:00,
2013-10-03 08:54:00,62.0,-99.9,-100.00,WSW,237,11.0,27.0,-999,-99.99,,,-99.99,,2013-10-03 15:54:00,
2013-10-03 09:20:00,64.0,-99.9,-100.00,West,262,11.0,36.0,-999,-99.99,,,-99.99,,2013-10-03 16:20:00,
2013-10-03 10:12:00,64.0,-99.9,-100.00,West,262,11.0,36.0,-999,-99.99,,,-99.99,,2013-10-03 17:12:00,
2013-10-03 11:22:00,67.0,-99.9,-100.00,North,358,11.0,17.0,-999,-99.99,,,-99.99,,2013-10-03 18:22:00,
2013-10-03 11:42:00,69.0,-99.9,-100.00,NW,306,8.0,16.0,-999,-99.99,,,-99.99,,2013-10-03 18:42:00,
2013-10-03 11:52:00,69.0,-99.9,-100.00,WSW,240,19.0,30.0,-999,-99.99,,,-99.99,,2013-10-03 18:52:00,
2013-10-03 12:11:00,68.0,-99.9,-100.00,WNW,289,10.0,36.0,-999,-99.99,,,-99.99,,2013-10-03 19:11:00,
2013-10-03 12:22:00,68.0,-99.9,-100.00,WNW,289,10.0,36.0,-999,-99.99,,,-99.99,,2013-10-03 19:22:00,
2013-10-03 13:30:00,73.0,-99.9,-100.00,WSW,250,5.0,7.0,-999,-99.99,,,-99.99,,2013-10-03 20:30:00,
2013-10-03 13:42:00,67.0,-99.9,-100.00,SSW,211,14.0,27.0,-999,-99.99,,,-99.99,,2013-10-03 20:42:00,
2013-10-03 13:52:00,67.0,-99.9,-100.00,SSW,211,14.0,27.0,-999,-99.99,,,-99.99,,2013-10-03 20:52:00,
2013-10-03 14:22:00,73.0,-99.9,-100.00,WSW,250,5.0,7.0,-999,-99.99,,,-99.99,,2013-10-03 21:22:00,
2013-10-03 16:53:00,70.0,-99.9,-100.00,NNW,332,16.0,16.0,-999,-99.99,,,-99.99,,2013-10-03 23:53:00,
2013-10-03 17:02:00,70.0,-99.9,-100.00,NNW,332,16.0,16.0,-999,-99.99,,,-99.99,,2013-10-04 00:02:00,
2013-10-03 17:10:00,66.0,-99.9,-100.00,WSW,247,24.0,30.0,-999,-99.99,,,-99.99,,2013-10-04 00:10:00,
2013-10-03 17:12:00,70.0,-99.9,-100.00,NNW,332,16.0,16.0,-999,-99.99,,,-99.99,,2013-10-04 00:12:00,
2013-10-03 17:52:00,66.0,-99.9,-100.00,WSW,247,24.0,30.0,-999,-99.99,,,-99.99,,2013-10-04 00:52:00,
2013-10-03 18:02:00,66.0,-99.9,-100.00,WSW,247,24.0,30.0,-999,-99.99,,,-99.99,,2013-10-04 01:02:00,
2013-10-03 18:40:00,63.0,-99.9,-100.00,WSW,255,11.0,20.0,-999,-99.99,,,-99.99,,2013-10-04 01:40:00,
2013-10-03 19:22:00,63.0,-99.9,-100.00,WSW,255,11.0,20.0,-999,-99.99,,,-99.99,,2013-10-04 02:22:00,
2013-10-03 19:33:00,63.0,-99.9,-100.00,WSW,255,11.0,20.0,-999,-99.99,,,-99.99,,2013-10-04 02:33:00,
2013-10-03 20:22:00,65.0,-99.9,-100.00,West,265,8.0,16.0,-999,-99.99,,,-99.99,,2013-10-04 03:22:00,
2013-10-03 20:34:00,65.0,-99.9,-100.00,West,265,8.0,16.0,-999,-99.99,,,-99.99,,2013-10-04 03:34:00,
2013-10-03 20:50:00,64.0,-99.9,-100.00,NW,304,7.0,11.0,-999,-99.99,,,-99.99,,2013-10-04 03:50:00,
2013-10-03 22:15:00,60.0,-99.9,-100.00,WNW,298,7.0,9.0,-999,-99.99,,,-99.99,,2013-10-04 05:15:00,
2013-10-03 22:51:00,62.0,-99.9,-100.00,WSW,253,4.0,7.0,-999,-99.99,,,-99.99,,2013-10-04 05:51:00,
2013-10-03 23:01:00,60.0,-99.9,-100.00,WNW,298,7.0,9.0,-999,-99.99,,,-99.99,,2013-10-04 06:01:00,
2013-10-03 23:11:00,60.0,-99.9,-100.00,WNW,298,7.0,9.0,-999,-99.99,,,-99.99,,2013-10-04 06:11:00,
2013-10-03 23:15:00,60.0,-99.9,-100.00,NE,38,4.0,8.0,-999,-99.99,,,-99.99,,2013-10-04 06:15:00,
2013-10-03 23:50:00,60.0,-99.9,-100.00,NNW,339,8.0,12.0,-999,-99.99,,,-99.99,,2013-10-04 06:50:00,